Time;durP1;ratioP1;P1;durP2;ratioP2;P2;SDS_P1;SDS_P2;PMS_P1;PMS_P2;Temp;Humidity;BMP_temperature;BMP_pressure;BME280_temperature;BME280_humidity;BME280_pressure;Samples;Min_cycle;Max_cycle;Signal;HPM_P1;HPM_P2
2022/11/09 00:02:16;;;;;;;6.93;3.10;;;13.70;99.90;;;;;;5029144;28;20033;-70
2022/11/09 00:04:41;;;;;;;4.68;2.72;;;13.70;99.90;;;;;;5027491;28;20049;-70
2022/11/09 00:07:07;;;;;;;5.07;2.50;;;13.70;99.90;;;;;;5026963;28;20111;-70
2022/11/09 00:09:33;;;;;;;8.43;2.83;;;13.60;99.90;;;;;;5060909;28;20137;-69
2022/11/09 00:12:03;;;;;;;5.82;2.75;;;13.60;99.90;;;;;;5031863;28;20046;-70
2022/11/09 00:14:29;;;;;;;4.60;2.10;;;13.60;99.90;;;;;;5026543;28;20049;-70
2022/11/09 00:16:56;;;;;;;6.22;2.53;;;13.60;99.90;;;;;;5058022;28;20046;-70
2022/11/09 00:19:22;;;;;;;6.47;2.60;;;13.60;99.90;;;;;;5044121;28;20054;-70
2022/11/09 00:21:48;;;;;;;6.20;2.35;;;13.60;99.90;;;;;;5033889;28;20058;-70
2022/11/09 00:24:14;;;;;;;8.68;3.33;;;13.60;99.90;;;;;;5060834;28;20111;-70
2022/11/09 00:26:39;;;;;;;6.18;2.75;;;13.50;99.90;;;;;;5030278;28;20060;-70
2022/11/09 00:29:05;;;;;;;7.88;3.00;;;13.50;99.90;;;;;;5026870;28;20129;-70
2022/11/09 00:31:31;;;;;;;6.15;2.65;;;13.50;99.90;;;;;;5032095;28;20080;-70
2022/11/09 00:33:57;;;;;;;4.60;2.00;;;13.60;99.90;;;;;;5028022;28;20042;-70
2022/11/09 00:36:24;;;;;;;6.68;2.30;;;13.60;99.90;;;;;;5025898;28;20053;-70
2022/11/09 00:38:52;;;;;;;5.13;2.70;;;13.60;99.90;;;;;;5023615;28;20066;-70
2022/11/09 00:41:19;;;;;;;7.68;2.70;;;13.50;99.90;;;;;;5030735;28;20044;-70
2022/11/09 00:43:45;;;;;;;7.72;2.63;;;13.50;99.90;;;;;;5027161;28;20417;-70
2022/11/09 00:46:11;;;;;;;5.60;2.70;;;13.50;99.90;;;;;;5030038;28;20494;-69
2022/11/09 00:48:36;;;;;;;7.47;2.70;;;13.60;99.90;;;;;;5026984;28;20044;-70
2022/11/09 00:51:03;;;;;;;6.05;2.95;;;13.50;99.90;;;;;;5054435;28;20419;-70
2022/11/09 00:53:29;;;;;;;6.57;2.65;;;13.60;99.90;;;;;;5026961;28;20050;-70
2022/11/09 00:56:02;;;;;;;6.18;2.67;;;13.60;99.90;;;;;;5031795;28;20057;-70
2022/11/09 00:58:30;;;;;;;6.32;2.53;;;13.50;99.90;;;;;;5031392;28;20072;-70
2022/11/09 01:00:57;;;;;;;6.05;2.65;;;13.50;99.90;;;;;;5028142;28;20057;-70
2022/11/09 01:03:24;;;;;;;7.32;2.50;;;13.50;99.90;;;;;;5028184;28;20435;-70
2022/11/09 01:05:50;;;;;;;5.85;2.40;;;13.60;99.90;;;;;;5024202;28;20481;-70
2022/11/09 01:08:16;;;;;;;5.07;2.60;;;13.50;99.90;;;;;;5030682;28;20045;-70
2022/11/09 01:10:43;;;;;;;7.57;3.25;;;13.50;99.90;;;;;;5029042;28;20048;-70
2022/11/09 01:13:10;;;;;;;9.57;2.95;;;13.50;99.90;;;;;;5035385;28;20069;-70
2022/11/09 01:15:44;;;;;;;9.52;3.30;;;13.50;99.90;;;;;;5024759;28;20115;-70
2022/11/09 01:18:11;;;;;;;6.90;3.10;;;13.50;99.90;;;;;;5044017;28;20449;-70
2022/11/09 01:20:41;;;;;;;7.60;2.83;;;13.50;99.90;;;;;;5075361;28;20057;-70
2022/11/09 01:23:09;;;;;;;6.82;2.55;;;13.50;99.90;;;;;;5022999;28;20093;-70
2022/11/09 01:25:35;;;;;;;6.15;2.83;;;13.50;99.90;;;;;;5033470;28;20092;-70
2022/11/09 01:28:01;;;;;;;6.30;2.75;;;13.50;99.90;;;;;;5024458;28;20057;-70
2022/11/09 01:30:27;;;;;;;7.10;2.40;;;13.50;99.90;;;;;;5022884;28;20042;-70
2022/11/09 01:32:52;;;;;;;6.03;2.28;;;13.50;99.90;;;;;;5024499;28;20080;-70
2022/11/09 01:35:18;;;;;;;8.70;2.63;;;13.40;99.90;;;;;;5022673;28;20410;-70
2022/11/09 01:37:44;;;;;;;5.68;2.75;;;13.40;99.90;;;;;;5022425;28;20072;-70
2022/11/09 01:40:11;;;;;;;7.10;2.85;;;13.40;99.90;;;;;;5023786;28;20046;-70
2022/11/09 01:42:39;;;;;;;7.20;2.45;;;13.40;99.90;;;;;;5057292;28;20133;-70
2022/11/09 01:45:16;;;;;;;4.35;2.40;;;13.30;99.90;;;;;;5023735;28;20064;-70
2022/11/09 01:47:44;;;;;;;7.20;2.78;;;13.30;99.90;;;;;;5019726;28;20053;-70
2022/11/09 01:50:12;;;;;;;7.68;3.03;;;13.30;99.90;;;;;;5028392;28;20058;-69
2022/11/09 01:52:42;;;;;;;6.82;2.75;;;13.30;99.90;;;;;;5030371;28;20128;-70
2022/11/09 01:55:15;;;;;;;7.45;3.15;;;13.30;99.90;;;;;;5029174;28;20053;-69
2022/11/09 01:57:50;;;;;;;6.82;2.80;;;13.30;99.90;;;;;;5023961;28;20109;-69
2022/11/09 02:00:17;;;;;;;7.95;3.08;;;13.30;99.90;;;;;;5036727;28;20486;-69
2022/11/09 02:02:49;;;;;;;6.75;2.65;;;13.20;99.90;;;;;;5025228;28;20054;-69
2022/11/09 02:05:17;;;;;;;7.15;2.90;;;13.20;99.90;;;;;;5027001;28;20105;-69
2022/11/09 02:07:43;;;;;;;7.93;2.63;;;13.20;99.90;;;;;;5043299;28;20038;-69
2022/11/09 02:10:28;;;;;;;6.85;2.67;;;13.20;99.90;;;;;;5012326;28;20081;-69
2022/11/09 02:12:55;;;;;;;8.07;2.70;;;13.30;99.90;;;;;;5035982;28;20077;-69
2022/11/09 02:15:21;;;;;;;6.53;3.13;;;13.20;99.90;;;;;;5042629;28;20045;-70
2022/11/09 02:17:51;;;;;;;9.23;2.80;;;13.20;99.90;;;;;;5030858;28;20054;-69
2022/11/09 02:20:17;;;;;;;7.03;2.63;;;13.20;99.90;;;;;;5036972;28;20069;-70
2022/11/09 02:22:43;;;;;;;8.30;2.75;;;13.20;99.90;;;;;;5028870;28;20062;-70
2022/11/09 02:25:11;;;;;;;7.43;2.58;;;13.10;99.90;;;;;;5027054;28;20081;-70
2022/11/09 02:27:37;;;;;;;8.27;2.60;;;13.10;99.90;;;;;;5026034;28;20085;-70
2022/11/09 02:30:04;;;;;;;7.05;2.78;;;13.20;99.90;;;;;;5008296;28;20038;-70
2022/11/09 02:32:30;;;;;;;4.20;2.20;;;13.20;99.90;;;;;;5024425;28;20057;-70
2022/11/09 02:34:56;;;;;;;7.50;2.15;;;13.20;99.90;;;;;;5027443;28;20054;-70
2022/11/09 02:37:40;;;;;;;8.38;2.50;;;13.10;99.90;;;;;;5024355;28;20052;-69
2022/11/09 02:40:31;;;;;;;5.10;2.47;;;13.20;99.90;;;;;;5019904;28;20056;-70
2022/11/09 02:42:59;;;;;;;7.18;2.33;;;13.20;99.90;;;;;;5020239;28;20401;-70
2022/11/09 02:45:25;;;;;;;5.25;2.53;;;13.10;99.90;;;;;;5016796;28;20054;-70
2022/11/09 02:47:51;;;;;;;6.57;2.28;;;13.00;99.90;;;;;;5026895;28;20059;-70
2022/11/09 02:50:16;;;;;;;6.38;2.60;;;13.00;99.90;;;;;;5026950;28;20038;-70
2022/11/09 02:52:42;;;;;;;7.68;2.60;;;13.10;99.90;;;;;;5027720;28;20045;-70
2022/11/09 02:55:09;;;;;;;7.18;2.47;;;13.00;99.90;;;;;;5018519;28;20069;-70
2022/11/09 02:57:34;;;;;;;6.50;2.20;;;12.90;99.90;;;;;;5029731;28;20129;-69
2022/11/09 03:00:00;;;;;;;4.88;2.05;;;13.00;99.90;;;;;;5029074;28;20509;-70
2022/11/09 03:02:26;;;;;;;7.15;2.40;;;13.00;99.90;;;;;;5032104;28;20414;-70
2022/11/09 03:04:51;;;;;;;8.80;2.60;;;13.00;99.90;;;;;;5030141;28;20045;-70
2022/11/09 03:07:17;;;;;;;9.43;2.97;;;13.00;99.90;;;;;;5026435;28;20113;-70
2022/11/09 03:09:44;;;;;;;8.15;2.95;;;13.00;99.90;;;;;;5029235;28;20042;-70
2022/11/09 03:12:28;;;;;;;11.27;2.58;;;13.10;99.90;;;;;;5028299;28;20058;-70
2022/11/09 03:14:58;;;;;;;9.65;2.67;;;13.00;99.90;;;;;;5019473;28;20041;-70
2022/11/09 03:17:25;;;;;;;7.97;2.25;;;13.00;99.90;;;;;;5030311;28;20467;-70
2022/11/09 03:19:52;;;;;;;8.73;2.30;;;12.90;99.90;;;;;;5027280;28;20494;-70
2022/11/09 03:22:17;;;;;;;6.25;2.15;;;12.90;99.90;;;;;;5030242;28;20065;-70
2022/11/09 03:24:43;;;;;;;8.38;2.20;;;12.90;99.90;;;;;;5028389;28;20156;-70
2022/11/09 03:27:09;;;;;;;6.15;1.90;;;12.90;99.90;;;;;;5031165;28;20044;-70
2022/11/09 03:29:35;;;;;;;12.57;2.80;;;12.90;99.90;;;;;;5029822;28;20045;-70
2022/11/09 03:32:00;;;;;;;11.10;2.10;;;12.90;99.90;;;;;;5031063;28;20045;-70
2022/11/09 03:34:26;;;;;;;9.88;2.95;;;12.90;99.90;;;;;;5026855;28;20073;-70
2022/11/09 03:36:52;;;;;;;12.52;2.72;;;12.90;99.90;;;;;;5029993;28;20045;-70
2022/11/09 03:39:18;;;;;;;6.55;2.13;;;12.80;99.90;;;;;;5045375;28;20049;-70
2022/11/09 03:41:43;;;;;;;7.45;1.83;;;12.90;99.90;;;;;;5044456;28;20077;-70
2022/11/09 03:44:09;;;;;;;9.75;2.30;;;12.90;99.90;;;;;;5036895;28;20466;-70
2022/11/09 03:46:35;;;;;;;8.95;2.28;;;12.80;99.90;;;;;;5038995;28;20121;-70
2022/11/09 03:49:00;;;;;;;9.05;2.35;;;12.80;99.90;;;;;;5045432;28;20057;-69
2022/11/09 03:51:26;;;;;;;11.23;2.90;;;12.80;99.90;;;;;;5043348;28;20081;-70
2022/11/09 03:53:52;;;;;;;8.75;2.67;;;12.70;99.90;;;;;;5056865;28;20049;-70
2022/11/09 03:56:18;;;;;;;7.07;2.28;;;12.70;99.90;;;;;;5031943;28;20050;-69
2022/11/09 03:58:44;;;;;;;13.30;2.70;;;12.70;99.90;;;;;;5033627;28;20065;-67
2022/11/09 04:01:09;;;;;;;9.00;2.00;;;12.60;99.90;;;;;;5031195;28;20042;-67
2022/11/09 04:03:36;;;;;;;11.57;2.28;;;12.70;99.90;;;;;;5026898;28;20068;-67
2022/11/09 04:06:02;;;;;;;13.60;2.85;;;12.80;99.90;;;;;;5030086;28;20057;-67
2022/11/09 04:08:28;;;;;;;9.68;2.33;;;12.70;99.90;;;;;;5026679;28;20049;-68
2022/11/09 04:10:53;;;;;;;6.47;2.25;;;12.80;99.90;;;;;;5029065;28;20529;-67
2022/11/09 04:13:19;;;;;;;8.85;2.67;;;12.90;99.90;;;;;;5030337;28;20124;-67
2022/11/09 04:15:45;;;;;;;10.00;2.25;;;12.90;99.90;;;;;;5027718;28;20042;-67
2022/11/09 04:18:13;;;;;;;9.05;2.47;;;13.00;99.90;;;;;;5032536;28;20050;-68
2022/11/09 04:20:39;;;;;;;9.75;2.58;;;12.90;99.90;;;;;;5021687;28;20041;-69
2022/11/09 04:23:08;;;;;;;10.57;2.60;;;12.90;99.90;;;;;;5021852;28;20073;-69
2022/11/09 04:25:35;;;;;;;13.73;3.15;;;12.90;99.90;;;;;;5018470;28;20073;-69
2022/11/09 04:28:03;;;;;;;8.63;2.30;;;12.90;99.90;;;;;;5032658;28;20045;-69
2022/11/09 04:30:30;;;;;;;10.55;2.50;;;12.90;99.90;;;;;;5022124;28;20058;-69
2022/11/09 04:32:57;;;;;;;8.13;2.35;;;12.90;99.90;;;;;;5024611;28;20124;-69
2022/11/09 04:35:24;;;;;;;7.18;2.55;;;12.80;99.90;;;;;;5025887;28;20054;-69
2022/11/09 04:37:55;;;;;;;7.20;2.95;;;12.80;99.90;;;;;;5025369;28;20134;-70
2022/11/09 04:40:22;;;;;;;6.28;2.25;;;12.90;99.90;;;;;;5026326;28;20077;-69
2022/11/09 04:42:48;;;;;;;8.77;2.28;;;12.80;99.90;;;;;;5030879;28;20041;-69
2022/11/09 04:45:14;;;;;;;8.65;2.78;;;12.80;99.90;;;;;;5030389;28;20046;-70
2022/11/09 04:47:39;;;;;;;8.40;2.70;;;12.80;99.90;;;;;;5027210;28;20050;-69
2022/11/09 04:50:06;;;;;;;7.10;2.22;;;12.80;99.90;;;;;;5028095;28;20121;-69
2022/11/09 04:52:32;;;;;;;6.35;2.78;;;12.80;99.90;;;;;;5027045;28;20053;-69
2022/11/09 04:54:57;;;;;;;7.68;2.95;;;12.80;99.90;;;;;;5028076;28;20057;-70
2022/11/09 04:57:23;;;;;;;10.30;2.75;;;12.80;99.90;;;;;;5013874;28;20046;-70
2022/11/09 04:59:49;;;;;;;5.00;2.60;;;12.70;99.90;;;;;;5026717;28;20052;-69
2022/11/09 05:02:15;;;;;;;6.70;2.38;;;12.60;99.90;;;;;;5026810;28;20057;-70
2022/11/09 05:04:40;;;;;;;8.15;2.80;;;12.60;99.90;;;;;;5027156;28;20073;-70
2022/11/09 05:07:06;;;;;;;7.30;2.50;;;12.80;99.90;;;;;;5025381;28;20046;-70
2022/11/09 05:09:32;;;;;;;8.80;2.65;;;12.70;99.90;;;;;;5025604;28;20052;-70
2022/11/09 05:11:57;;;;;;;5.13;2.50;;;12.70;99.90;;;;;;5025499;28;20042;-70
2022/11/09 05:14:23;;;;;;;8.15;2.25;;;12.60;99.90;;;;;;5026125;28;20057;-70
2022/11/09 05:16:49;;;;;;;8.52;2.65;;;12.70;99.90;;;;;;5026362;28;20129;-70
2022/11/09 05:19:15;;;;;;;6.18;2.10;;;12.60;99.90;;;;;;5026274;28;20050;-70
2022/11/09 05:21:40;;;;;;;12.23;2.38;;;12.60;99.90;;;;;;5021702;28;20057;-70
2022/11/09 05:24:07;;;;;;;10.57;3.15;;;12.60;99.90;;;;;;5024748;28;20068;-70
2022/11/09 05:26:38;;;;;;;6.57;2.50;;;12.70;99.90;;;;;;5024169;28;20076;-70
2022/11/09 05:29:08;;;;;;;6.07;2.30;;;12.70;99.90;;;;;;5025696;28;20100;-70
2022/11/09 05:31:35;;;;;;;10.48;2.60;;;12.70;99.90;;;;;;5014121;28;20062;-70
2022/11/09 05:34:01;;;;;;;5.82;2.17;;;12.80;99.90;;;;;;5026360;28;20081;-70
2022/11/09 05:36:29;;;;;;;9.18;2.35;;;12.70;99.90;;;;;;5026090;28;20046;-70
2022/11/09 05:38:55;;;;;;;7.32;2.85;;;12.80;99.90;;;;;;5027211;28;20053;-70
2022/11/09 05:41:21;;;;;;;9.00;2.40;;;12.90;99.90;;;;;;5025496;28;20499;-70
2022/11/09 05:43:48;;;;;;;8.38;2.08;;;12.90;99.90;;;;;;5023747;28;20054;-70
2022/11/09 05:46:15;;;;;;;8.50;2.72;;;12.90;99.90;;;;;;5023429;28;20042;-70
2022/11/09 05:48:41;;;;;;;10.20;2.65;;;12.80;99.90;;;;;;5026190;28;20045;-70
2022/11/09 05:51:10;;;;;;;6.95;2.38;;;12.90;99.90;;;;;;5023407;28;20050;-70
2022/11/09 05:53:36;;;;;;;10.20;2.95;;;12.80;99.90;;;;;;5030828;28;20049;-70
2022/11/09 05:56:07;;;;;;;9.73;2.28;;;12.80;99.90;;;;;;5034143;28;20096;-70
2022/11/09 05:58:35;;;;;;;8.60;2.50;;;12.70;99.90;;;;;;5031832;28;20587;-70
2022/11/09 06:01:03;;;;;;;8.88;2.65;;;12.70;99.90;;;;;;5035105;28;20050;-70
2022/11/09 06:03:29;;;;;;;9.48;2.60;;;12.70;99.90;;;;;;5032776;28;20041;-70
2022/11/09 06:05:58;;;;;;;9.23;2.65;;;12.70;99.90;;;;;;5035288;28;20049;-70
2022/11/09 06:08:24;;;;;;;5.63;2.15;;;12.70;99.90;;;;;;5034086;28;20057;-70
2022/11/09 06:10:49;;;;;;;8.90;2.58;;;12.60;99.90;;;;;;5034520;28;20042;-70
2022/11/09 06:13:15;;;;;;;5.80;2.25;;;12.60;99.90;;;;;;5034583;28;20057;-70
2022/11/09 06:15:41;;;;;;;7.75;2.30;;;12.70;99.90;;;;;;5035231;28;20034;-70
2022/11/09 06:18:06;;;;;;;7.85;2.60;;;12.70;99.90;;;;;;5034723;28;20466;-70
2022/11/09 06:20:32;;;;;;;7.38;2.30;;;12.60;99.90;;;;;;5036302;28;20100;-70
2022/11/09 06:22:59;;;;;;;7.47;2.35;;;12.60;99.90;;;;;;5034103;28;20057;-70
2022/11/09 06:25:26;;;;;;;9.00;2.50;;;12.50;99.90;;;;;;5036489;28;20041;-70
2022/11/09 06:27:55;;;;;;;7.88;2.50;;;12.50;99.90;;;;;;5036378;28;20040;-70
2022/11/09 06:30:21;;;;;;;7.17;2.20;;;12.50;99.90;;;;;;5031008;28;20045;-70
2022/11/09 06:32:47;;;;;;;8.68;2.45;;;12.50;99.90;;;;;;5040915;28;20049;-70
2022/11/09 06:35:14;;;;;;;7.40;2.03;;;12.50;99.90;;;;;;5032986;28;20042;-69
2022/11/09 06:37:39;;;;;;;7.35;2.00;;;12.50;99.90;;;;;;5032069;28;20089;-70
2022/11/09 06:40:06;;;;;;;7.97;2.40;;;12.50;99.90;;;;;;5032088;28;20512;-70
2022/11/09 06:42:32;;;;;;;12.95;2.65;;;12.50;99.90;;;;;;5065323;28;20133;-70
2022/11/09 06:44:57;;;;;;;7.72;2.13;;;12.40;99.90;;;;;;5032850;28;20030;-70
2022/11/09 06:47:23;;;;;;;5.80;2.10;;;12.40;99.90;;;;;;5037631;28;20101;-70
2022/11/09 06:49:48;;;;;;;6.45;2.00;;;12.40;99.90;;;;;;5035726;28;20046;-70
2022/11/09 06:52:14;;;;;;;12.02;2.50;;;12.40;99.90;;;;;;5037043;28;20109;-70
2022/11/09 06:54:40;;;;;;;9.00;2.60;;;12.40;99.90;;;;;;5036238;28;20069;-70
2022/11/09 06:57:06;;;;;;;9.20;2.80;;;12.40;99.90;;;;;;5068332;28;20045;-70
2022/11/09 06:59:31;;;;;;;9.15;2.38;;;12.30;99.90;;;;;;5035469;28;20133;-70
2022/11/09 07:01:57;;;;;;;8.88;2.35;;;12.40;99.90;;;;;;5036678;28;20049;-69
2022/11/09 07:04:22;;;;;;;9.77;2.28;;;12.30;99.90;;;;;;5035670;28;20084;-71
2022/11/09 07:06:48;;;;;;;6.63;2.20;;;12.30;99.90;;;;;;5037604;28;20072;-70
2022/11/09 07:09:14;;;;;;;10.82;2.53;;;12.20;99.90;;;;;;5031828;28;20104;-74
2022/11/09 07:11:39;;;;;;;12.30;3.22;;;12.20;99.90;;;;;;5036106;28;20076;-68
2022/11/09 07:14:05;;;;;;;13.80;3.25;;;12.20;99.90;;;;;;5028273;28;20100;-72
2022/11/09 07:16:31;;;;;;;9.65;2.47;;;12.10;99.90;;;;;;4975651;28;20141;-72
2022/11/09 07:18:57;;;;;;;8.40;2.30;;;12.20;99.90;;;;;;5011091;28;20045;-71
2022/11/09 07:21:23;;;;;;;9.93;2.20;;;12.20;99.90;;;;;;5024204;28;20062;-71
2022/11/09 07:23:49;;;;;;;9.13;2.20;;;12.20;99.90;;;;;;5020231;28;20077;-70
2022/11/09 07:26:15;;;;;;;9.77;2.83;;;12.20;99.90;;;;;;5022326;28;20053;-70
2022/11/09 07:28:41;;;;;;;8.48;2.20;;;12.20;99.90;;;;;;5018826;28;20463;-71
2022/11/09 07:31:08;;;;;;;6.82;2.35;;;12.20;99.90;;;;;;5019781;28;20625;-71
2022/11/09 07:33:33;;;;;;;7.25;2.05;;;12.20;99.90;;;;;;5019417;28;20084;-70
2022/11/09 07:36:00;;;;;;;7.38;2.10;;;12.20;99.90;;;;;;5023654;28;20038;-69
2022/11/09 07:38:28;;;;;;;8.30;3.10;;;12.20;99.90;;;;;;5016364;28;20087;-68
2022/11/09 07:40:56;;;;;;;5.68;2.10;;;12.30;99.90;;;;;;4998972;28;20189;-69
2022/11/09 07:43:22;;;;;;;12.85;2.58;;;12.30;99.90;;;;;;5025814;28;20113;-69
2022/11/09 07:45:48;;;;;;;7.13;2.20;;;12.30;99.90;;;;;;5039717;28;20049;-71
2022/11/09 07:48:14;;;;;;;10.75;2.40;;;12.30;99.90;;;;;;5029263;28;20055;-67
2022/11/09 07:50:40;;;;;;;9.10;2.30;;;12.30;99.90;;;;;;5020301;28;20125;-68
2022/11/09 07:53:07;;;;;;;8.50;2.55;;;12.30;99.90;;;;;;5046236;28;20102;-67
2022/11/09 07:55:34;;;;;;;8.82;2.85;;;12.40;99.90;;;;;;5045006;28;20082;-68
2022/11/09 07:58:06;;;;;;;13.75;3.20;;;12.40;99.90;;;;;;5050154;28;20056;-72
2022/11/09 08:00:34;;;;;;;9.82;2.40;;;12.30;99.90;;;;;;5057476;28;20049;-67
2022/11/09 08:02:59;;;;;;;8.13;3.17;;;12.40;99.90;;;;;;5051300;28;20040;-67
2022/11/09 08:05:25;;;;;;;12.15;2.67;;;12.40;99.90;;;;;;5033571;28;20048;-67
2022/11/09 08:08:00;;;;;;;10.65;2.42;;;12.40;99.90;;;;;;5046381;28;20669;-69
2022/11/09 08:10:27;;;;;;;12.77;3.08;;;12.40;99.90;;;;;;5051806;28;20056;-69
2022/11/09 08:13:03;;;;;;;10.32;2.50;;;12.50;99.90;;;;;;5054827;28;20094;-68
2022/11/09 08:15:30;;;;;;;11.43;2.95;;;12.50;99.90;;;;;;5068016;28;20044;-69
2022/11/09 08:18:01;;;;;;;12.52;3.60;;;12.50;99.90;;;;;;5052434;28;20048;-68
2022/11/09 08:20:28;;;;;;;11.10;3.47;;;12.50;99.90;;;;;;5070408;28;20052;-69
2022/11/09 08:22:53;;;;;;;13.90;2.80;;;12.50;99.90;;;;;;5036472;28;20037;-69
2022/11/09 08:25:19;;;;;;;10.90;2.53;;;12.50;99.90;;;;;;5049562;28;20539;-68
2022/11/09 08:27:45;;;;;;;10.23;3.38;;;12.50;99.90;;;;;;5060775;28;20068;-68
2022/11/09 08:30:13;;;;;;;13.20;3.17;;;12.50;99.90;;;;;;5044695;28;20045;-70
2022/11/09 08:32:40;;;;;;;11.75;3.55;;;12.60;99.90;;;;;;5048310;28;20080;-68
2022/11/09 08:35:09;;;;;;;11.48;3.33;;;12.70;99.90;;;;;;5046282;28;20064;-68
2022/11/09 08:37:37;;;;;;;10.70;2.90;;;12.70;99.90;;;;;;5037195;28;20053;-68
2022/11/09 08:40:04;;;;;;;12.10;2.97;;;12.80;99.90;;;;;;5043246;28;20033;-68
2022/11/09 08:42:30;;;;;;;13.18;2.92;;;12.80;99.90;;;;;;5047265;28;20058;-68
2022/11/09 08:44:55;;;;;;;7.35;2.60;;;12.80;99.90;;;;;;5025082;28;20116;-68
2022/11/09 08:47:21;;;;;;;8.20;2.80;;;12.90;99.90;;;;;;5022373;28;20048;-71
2022/11/09 08:49:47;;;;;;;14.15;3.35;;;12.90;99.90;;;;;;5017157;28;20038;-68
2022/11/09 08:52:14;;;;;;;12.77;2.60;;;13.00;99.90;;;;;;5026755;28;20159;-68
2022/11/09 08:54:40;;;;;;;13.15;2.95;;;13.00;99.90;;;;;;5017939;28;20038;-69
2022/11/09 08:57:05;;;;;;;9.25;2.80;;;13.00;99.90;;;;;;5005947;28;20116;-68
2022/11/09 08:59:31;;;;;;;10.02;3.22;;;13.10;99.90;;;;;;5035407;28;20052;-72
2022/11/09 09:01:57;;;;;;;13.95;3.47;;;13.10;99.90;;;;;;5040869;28;20048;-68
2022/11/09 09:04:23;;;;;;;10.23;3.00;;;13.10;99.90;;;;;;5040877;28;20102;-68
2022/11/09 09:06:49;;;;;;;11.77;3.30;;;13.20;99.90;;;;;;5028609;28;20120;-69
2022/11/09 09:09:14;;;;;;;11.20;2.95;;;13.10;99.90;;;;;;5035483;28;20051;-67
2022/11/09 09:11:40;;;;;;;11.38;3.70;;;13.20;99.90;;;;;;5052749;28;20077;-67
2022/11/09 09:14:06;;;;;;;12.80;3.03;;;13.30;99.90;;;;;;5062098;28;20052;-67
2022/11/09 09:16:31;;;;;;;10.40;2.80;;;13.30;99.90;;;;;;5000234;28;20052;-68
2022/11/09 09:18:58;;;;;;;8.95;2.95;;;13.40;99.90;;;;;;5037418;28;20126;-67
2022/11/09 09:21:24;;;;;;;18.92;3.67;;;13.40;99.90;;;;;;5031585;28;21709;-67
2022/11/09 09:23:50;;;;;;;10.23;3.00;;;13.50;99.90;;;;;;5042257;28;20037;-68
2022/11/09 09:26:16;;;;;;;16.90;3.05;;;13.50;99.90;;;;;;5031935;28;20056;-68
2022/11/09 09:28:42;;;;;;;10.95;3.78;;;13.60;99.90;;;;;;5026249;28;20050;-69
2022/11/09 09:31:08;;;;;;;13.93;3.35;;;13.70;99.90;;;;;;5035528;28;20049;-71
2022/11/09 09:33:34;;;;;;;9.48;2.40;;;13.70;99.90;;;;;;5037918;28;20285;-68
2022/11/09 09:36:00;;;;;;;11.27;3.33;;;13.80;99.90;;;;;;5019224;28;20056;-68
2022/11/09 09:38:26;;;;;;;12.50;3.20;;;13.70;99.90;;;;;;5048733;28;20377;-69
2022/11/09 09:40:52;;;;;;;13.75;3.63;;;13.70;99.90;;;;;;5049755;28;20037;-68
2022/11/09 09:43:36;;;;;;;12.20;3.35;;;13.70;99.90;;;;;;5061084;28;20058;-68
2022/11/09 09:46:05;;;;;;;14.50;3.85;;;13.60;99.90;;;;;;5029257;28;20057;-67
2022/11/09 09:48:53;;;;;;;14.20;3.38;;;13.50;99.90;;;;;;5042354;28;20124;-67
2022/11/09 09:51:40;;;;;;;10.10;3.55;;;13.50;99.90;;;;;;5026998;28;20077;-68
2022/11/09 09:54:16;;;;;;;15.15;3.50;;;13.60;99.90;;;;;;5058970;28;20402;-68
2022/11/09 09:56:44;;;;;;;15.82;4.22;;;13.60;99.90;;;;;;5026462;28;20078;-68
2022/11/09 09:59:19;;;;;;;15.98;3.95;;;13.70;99.90;;;;;;5044654;28;20053;-68
2022/11/09 10:01:46;;;;;;;15.77;3.50;;;13.70;99.90;;;;;;5037831;28;20055;-68
2022/11/09 10:04:17;;;;;;;13.82;3.67;;;13.80;99.90;;;;;;5025002;28;20122;-68
2022/11/09 10:07:15;;;;;;;12.27;3.83;;;13.70;99.90;;;;;;5034271;28;20496;-68
2022/11/09 10:09:51;;;;;;;13.45;3.42;;;13.70;99.90;;;;;;5033291;28;20045;-69
2022/11/09 10:12:46;;;;;;;10.02;3.28;;;13.80;99.90;;;;;;5043473;28;20469;-68
2022/11/09 10:15:26;;;;;;;8.10;2.90;;;13.80;99.90;;;;;;5048332;28;20060;-68
2022/11/09 10:18:06;;;;;;;10.50;3.60;;;13.90;99.90;;;;;;5046744;28;20543;-68
2022/11/09 10:20:40;;;;;;;11.98;3.20;;;14.00;99.90;;;;;;5044638;28;20136;-68
2022/11/09 10:23:11;;;;;;;10.65;3.08;;;14.10;99.90;;;;;;5030365;28;20056;-68
2022/11/09 10:25:38;;;;;;;13.07;2.90;;;14.10;99.90;;;;;;5037555;28;20041;-68
2022/11/09 10:28:10;;;;;;;14.07;3.50;;;14.10;99.90;;;;;;5054720;28;20056;-68
2022/11/09 10:30:36;;;;;;;14.45;3.38;;;14.20;99.90;;;;;;5032787;28;20590;-68
2022/11/09 10:33:15;;;;;;;11.63;3.20;;;14.10;99.90;;;;;;5057302;28;20102;-68
2022/11/09 10:35:47;;;;;;;11.43;4.03;;;14.10;99.90;;;;;;5049167;28;20045;-68
2022/11/09 10:38:24;;;;;;;14.80;3.50;;;14.00;99.90;;;;;;5048135;28;20853;-68
2022/11/09 10:40:59;;;;;;;9.40;2.80;;;14.00;99.90;;;;;;5028791;28;20087;-69
2022/11/09 10:43:25;;;;;;;14.40;3.25;;;14.10;99.90;;;;;;5053380;28;20049;-68
2022/11/09 10:46:17;;;;;;;15.77;3.90;;;14.10;99.90;;;;;;5026505;28;20410;-68
2022/11/09 10:48:42;;;;;;;11.77;3.30;;;14.10;99.90;;;;;;5020779;28;20116;-68
2022/11/09 10:51:32;;;;;;;12.63;2.85;;;14.10;99.90;;;;;;5027670;28;20113;-69
2022/11/09 10:54:21;;;;;;;10.73;2.88;;;14.10;99.90;;;;;;5008490;28;20046;-68
2022/11/09 10:56:51;;;;;;;16.83;3.80;;;14.20;99.90;;;;;;5018418;28;20504;-68
2022/11/09 10:59:39;;;;;;;11.57;3.20;;;14.20;99.90;;;;;;5063789;28;20072;-68
2022/11/09 11:02:23;;;;;;;12.60;2.97;;;14.30;99.90;;;;;;5049027;28;20459;-68
2022/11/09 11:04:50;;;;;;;14.50;3.70;;;14.30;99.90;;;;;;5045903;28;20045;-68
2022/11/09 11:07:20;;;;;;;13.30;4.00;;;14.40;99.90;;;;;;5037068;28;20094;-68
2022/11/09 11:09:46;;;;;;;9.18;2.78;;;14.40;99.90;;;;;;5038853;28;20251;-67
2022/11/09 11:12:15;;;;;;;7.03;2.83;;;14.30;99.90;;;;;;5037676;28;20060;-66
2022/11/09 11:14:43;;;;;;;11.27;3.08;;;14.20;99.90;;;;;;5049236;28;20051;-66
2022/11/09 11:17:23;;;;;;;13.52;3.15;;;14.20;99.90;;;;;;5040106;28;20633;-67
2022/11/09 11:19:49;;;;;;;14.25;3.00;;;14.20;99.90;;;;;;5044771;28;20037;-66
2022/11/09 11:22:21;;;;;;;11.93;3.55;;;14.40;99.90;;;;;;5025041;28;20122;-66
2022/11/09 11:24:52;;;;;;;13.68;3.67;;;14.40;99.90;;;;;;5048593;28;20049;-66
2022/11/09 11:27:28;;;;;;;11.68;3.13;;;14.60;99.90;;;;;;5044399;28;20425;-68
2022/11/09 11:30:17;;;;;;;8.45;2.40;;;14.60;99.90;;;;;;5047641;28;20429;-68
2022/11/09 11:32:43;;;;;;;12.32;2.83;;;14.70;99.90;;;;;;5040332;28;20082;-67
2022/11/09 11:35:20;;;;;;;12.82;3.30;;;14.80;99.90;;;;;;5042746;28;20029;-67
2022/11/09 11:37:59;;;;;;;11.20;2.35;;;14.80;99.90;;;;;;5038968;28;20052;-65
2022/11/09 11:40:57;;;;;;;14.98;2.83;;;14.60;99.90;;;;;;5041180;28;20481;-65
2022/11/09 11:43:45;;;;;;;9.68;2.42;;;14.50;99.90;;;;;;5041397;28;20056;-67
2022/11/09 11:46:37;;;;;;;11.95;2.40;;;14.60;99.90;;;;;;5008674;28;20057;-66
2022/11/09 11:49:31;;;;;;;12.52;3.20;;;14.70;99.90;;;;;;5034082;28;20103;-67
2022/11/09 11:52:03;;;;;;;10.77;2.72;;;14.60;99.90;;;;;;5014158;28;20179;-67
2022/11/09 11:54:47;;;;;;;11.90;3.33;;;14.60;99.90;;;;;;5055988;28;20053;-67
2022/11/09 11:57:32;;;;;;;11.75;2.35;;;14.60;99.90;;;;;;5064080;28;20179;-67
2022/11/09 12:00:09;;;;;;;12.38;2.53;;;14.50;99.90;;;;;;5043669;28;20045;-66
2022/11/09 12:02:49;;;;;;;10.32;2.78;;;14.50;99.90;;;;;;5040499;28;20058;-66
2022/11/09 12:05:40;;;;;;;9.85;2.50;;;14.50;99.90;;;;;;5049878;28;20041;-67
2022/11/09 12:08:30;;;;;;;13.98;3.13;;;14.40;99.90;;;;;;5031936;28;20236;-67
2022/11/09 12:11:17;;;;;;;11.80;2.13;;;14.40;99.90;;;;;;5048152;28;20033;-67
2022/11/09 12:14:05;;;;;;;6.68;2.30;;;14.30;99.90;;;;;;5028981;28;20656;-67
2022/11/09 12:16:39;;;;;;;12.05;2.55;;;14.40;99.90;;;;;;5036220;28;20053;-67
2022/11/09 12:19:14;;;;;;;8.45;2.53;;;14.50;99.90;;;;;;5017855;28;20126;-67
2022/11/09 12:22:05;;;;;;;12.43;2.53;;;14.60;99.90;;;;;;5024836;28;20287;-68
2022/11/09 12:24:53;;;;;;;11.07;2.60;;;14.60;99.90;;;;;;5025013;28;20068;-67
2022/11/09 12:27:40;;;;;;;9.40;2.53;;;14.60;99.90;;;;;;5037047;28;20521;-66
2022/11/09 12:30:11;;;;;;;9.98;2.22;;;14.60;99.90;;;;;;5059220;28;20049;-66
2022/11/09 12:33:10;;;;;;;9.77;2.45;;;14.60;99.90;;;;;;5034215;28;20049;-66
2022/11/09 12:35:47;;;;;;;11.85;2.50;;;14.50;99.90;;;;;;5016586;28;20107;-67
2022/11/09 12:38:35;;;;;;;11.02;2.30;;;14.50;99.90;;;;;;5035910;28;20053;-67
2022/11/09 12:41:22;;;;;;;10.43;2.83;;;14.50;99.90;;;;;;5023503;28;20211;-67
2022/11/09 12:44:01;;;;;;;11.48;2.15;;;14.60;99.90;;;;;;5036725;28;20083;-67
2022/11/09 12:46:33;;;;;;;8.73;2.20;;;14.60;99.90;;;;;;5013214;28;20049;-67
2022/11/09 12:49:02;;;;;;;6.93;2.40;;;14.70;99.90;;;;;;5037497;28;20563;-67
2022/11/09 12:51:28;;;;;;;9.93;2.10;;;14.80;99.90;;;;;;5024316;28;20054;-67
2022/11/09 12:53:56;;;;;;;7.78;2.20;;;14.70;99.90;;;;;;5052680;28;20045;-67
2022/11/09 12:56:28;;;;;;;10.30;2.53;;;14.80;99.90;;;;;;5037115;28;20064;-66